sensor_id;sensor_type;location;lat;lon;timestamp;pressure;altitude;pressure_sealevel;temperature;humidity
60832;BME280;46665;51.558;-0.448;2023-07-29T00:00:25;100071.72;;;16.68;100.00
60832;BME280;46665;51.558;-0.448;2023-07-29T00:02:53;100069.66;;;16.65;100.00
60832;BME280;46665;51.558;-0.448;2023-07-29T00:05:18;100076.44;;;16.67;100.00
60832;BME280;46665;51.558;-0.448;2023-07-29T00:07:44;100071.63;;;16.64;100.00
60832;BME280;46665;51.558;-0.448;2023-07-29T00:10:09;100073.22;;;16.65;100.00
60832;BME280;46665;51.558;-0.448;2023-07-29T00:12:34;100066.13;;;16.64;100.00
60832;BME280;46665;51.558;-0.448;2023-07-29T00:15:00;100085.94;;;16.70;100.00
60832;BME280;46665;51.558;-0.448;2023-07-29T00:17:25;100073.22;;;16.65;100.00
60832;BME280;46665;51.558;-0.448;2023-07-29T00:19:51;100080.53;;;16.61;100.00
60832;BME280;46665;51.558;-0.448;2023-07-29T00:22:16;100076.31;;;16.64;100.00
60832;BME280;46665;51.558;-0.448;2023-07-29T00:24:42;100073.88;;;16.62;100.00
60832;BME280;46665;51.558;-0.448;2023-07-29T00:27:07;100086.34;;;16.60;100.00
60832;BME280;46665;51.558;-0.448;2023-07-29T00:29:32;100075.25;;;16.56;100.00
60832;BME280;46665;51.558;-0.448;2023-07-29T00:31:58;100073.28;;;16.57;100.00
60832;BME280;46665;51.558;-0.448;2023-07-29T00:34:23;100079.47;;;16.54;100.00
60832;BME280;46665;51.558;-0.448;2023-07-29T00:36:49;100079.66;;;16.49;100.00
60832;BME280;46665;51.558;-0.448;2023-07-29T00:39:14;100072.06;;;16.45;100.00
60832;BME280;46665;51.558;-0.448;2023-07-29T00:41:39;100067.25;;;16.42;100.00
60832;BME280;46665;51.558;-0.448;2023-07-29T00:44:05;100070.19;;;16.37;100.00
60832;BME280;46665;51.558;-0.448;2023-07-29T00:46:32;100062.97;;;16.33;100.00
60832;BME280;46665;51.558;-0.448;2023-07-29T00:48:59;100073.81;;;16.29;100.00
60832;BME280;46665;51.558;-0.448;2023-07-29T00:51:25;100065.78;;;16.24;100.00
60832;BME280;46665;51.558;-0.448;2023-07-29T00:53:50;100071.59;;;16.22;100.00
60832;BME280;46665;51.558;-0.448;2023-07-29T00:56:16;100078.72;;;16.15;100.00
60832;BME280;46665;51.558;-0.448;2023-07-29T00:58:42;100081.19;;;16.08;100.00
60832;BME280;46665;51.558;-0.448;2023-07-29T01:01:08;100082.34;;;16.07;100.00
60832;BME280;46665;51.558;-0.448;2023-07-29T01:03:33;100077.56;;;15.95;100.00
60832;BME280;46665;51.558;-0.448;2023-07-29T01:09:01;100069.06;;;15.88;100.00
60832;BME280;46665;51.558;-0.448;2023-07-29T01:11:36;100069.06;;;15.88;100.00
60832;BME280;46665;51.558;-0.448;2023-07-29T01:17:06;100061.16;;;15.86;100.00
60832;BME280;46665;51.558;-0.448;2023-07-29T01:22:04;100057.94;;;15.84;100.00
60832;BME280;46665;51.558;-0.448;2023-07-29T01:24:32;100061.47;;;15.85;100.00
60832;BME280;46665;51.558;-0.448;2023-07-29T01:26:58;100052.78;;;15.82;100.00
60832;BME280;46665;51.558;-0.448;2023-07-29T01:29:23;100054.56;;;15.78;100.00
60832;BME280;46665;51.558;-0.448;2023-07-29T01:31:53;100043.59;;;15.78;100.00
60832;BME280;46665;51.558;-0.448;2023-07-29T01:34:26;100038.78;;;15.75;100.00
60832;BME280;46665;51.558;-0.448;2023-07-29T01:36:57;100038.78;;;15.75;100.00
60832;BME280;46665;51.558;-0.448;2023-07-29T01:39:26;100047.31;;;15.74;100.00
60832;BME280;46665;51.558;-0.448;2023-07-29T01:41:54;100050.06;;;15.74;100.00
60832;BME280;46665;51.558;-0.448;2023-07-29T01:44:20;100051.22;;;15.73;100.00
60832;BME280;46665;51.558;-0.448;2023-07-29T01:46:46;100051.69;;;15.75;100.00
60832;BME280;46665;51.558;-0.448;2023-07-29T01:49:12;100048.47;;;15.73;100.00
60832;BME280;46665;51.558;-0.448;2023-07-29T01:51:37;100055.25;;;15.75;100.00
60832;BME280;46665;51.558;-0.448;2023-07-29T01:54:03;100055.25;;;15.75;100.00
60832;BME280;46665;51.558;-0.448;2023-07-29T01:56:28;100047.00;;;15.75;100.00
60832;BME280;46665;51.558;-0.448;2023-07-29T01:58:54;100037.97;;;15.75;100.00
60832;BME280;46665;51.558;-0.448;2023-07-29T02:01:19;100050.06;;;15.74;100.00
60832;BME280;46665;51.558;-0.448;2023-07-29T02:03:44;100048.78;;;15.71;100.00
60832;BME280;46665;51.558;-0.448;2023-07-29T02:06:10;100045.38;;;15.74;100.00
60832;BME280;46665;51.558;-0.448;2023-07-29T02:08:35;100040.09;;;15.69;100.00
60832;BME280;46665;51.558;-0.448;2023-07-29T02:11:01;100035.56;;;15.65;100.00
60832;BME280;46665;51.558;-0.448;2023-07-29T02:13:26;100043.94;;;15.68;100.00
60832;BME280;46665;51.558;-0.448;2023-07-29T02:15:51;100041.19;;;15.68;100.00
60832;BME280;46665;51.558;-0.448;2023-07-29T02:18:17;100050.09;;;15.65;100.00
60832;BME280;46665;51.558;-0.448;2023-07-29T02:20:42;100058.78;;;15.67;100.00
60832;BME280;46665;51.558;-0.448;2023-07-29T02:23:14;100046.69;;;15.68;100.00
60832;BME280;46665;51.558;-0.448;2023-07-29T02:25:40;100032.19;;;15.68;100.00
60832;BME280;46665;51.558;-0.448;2023-07-29T02:28:05;100041.22;;;15.59;100.00
60832;BME280;46665;51.558;-0.448;2023-07-29T02:30:31;100037.19;;;15.57;100.00
60832;BME280;46665;51.558;-0.448;2023-07-29T02:32:56;100041.41;;;15.54;100.00
60832;BME280;46665;51.558;-0.448;2023-07-29T02:35:21;100035.78;;;15.51;100.00
60832;BME280;46665;51.558;-0.448;2023-07-29T02:37:47;100044.69;;;15.48;100.00
60832;BME280;46665;51.558;-0.448;2023-07-29T02:40:12;100033.91;;;15.43;100.00
60832;BME280;46665;51.558;-0.448;2023-07-29T02:42:38;100040.50;;;15.42;100.00
60832;BME280;46665;51.558;-0.448;2023-07-29T02:45:04;100030.38;;;15.33;100.00
60832;BME280;46665;51.558;-0.448;2023-07-29T02:47:29;100034.38;;;15.36;100.00
60832;BME280;46665;51.558;-0.448;2023-07-29T02:49:54;100030.38;;;15.33;100.00
60832;BME280;46665;51.558;-0.448;2023-07-29T02:52:20;100022.16;;;15.33;100.00
60832;BME280;46665;51.558;-0.448;2023-07-29T02:54:45;100037.63;;;15.38;100.00
60832;BME280;46665;51.558;-0.448;2023-07-29T02:57:11;100033.41;;;15.41;100.00
60832;BME280;46665;51.558;-0.448;2023-07-29T02:59:36;100021.16;;;15.38;100.00
60832;BME280;46665;51.558;-0.448;2023-07-29T03:02:02;100025.69;;;15.34;100.00
60832;BME280;46665;51.558;-0.448;2023-07-29T03:04:27;100031.16;;;15.34;100.00
60832;BME280;46665;51.558;-0.448;2023-07-29T03:06:52;100021.47;;;15.36;100.00
60832;BME280;46665;51.558;-0.448;2023-07-29T03:09:18;100038.59;;;15.33;100.00
60832;BME280;46665;51.558;-0.448;2023-07-29T03:11:43;100031.50;;;15.32;100.00
60832;BME280;46665;51.558;-0.448;2023-07-29T03:14:09;100023.94;;;15.29;100.00
60832;BME280;46665;51.558;-0.448;2023-07-29T03:16:34;100028.94;;;15.27;100.00
60832;BME280;46665;51.558;-0.448;2023-07-29T03:19:00;100027.81;;;15.28;100.00
60832;BME280;46665;51.558;-0.448;2023-07-29T03:21:25;100024.75;;;15.30;100.00
60832;BME280;46665;51.558;-0.448;2023-07-29T03:23:51;100015.06;;;15.24;100.00
60832;BME280;46665;51.558;-0.448;2023-07-29T03:26:16;100017.03;;;15.23;100.00
60832;BME280;46665;51.558;-0.448;2023-07-29T03:28:43;100020.06;;;15.22;100.00
60832;BME280;46665;51.558;-0.448;2023-07-29T03:31:09;100022.50;;;15.23;100.00
60832;BME280;46665;51.558;-0.448;2023-07-29T03:33:35;100021.09;;;15.17;100.00
60832;BME280;46665;51.558;-0.448;2023-07-29T03:36:00;100030.09;;;15.17;100.00
60832;BME280;46665;51.558;-0.448;2023-07-29T03:38:26;100030.09;;;15.17;100.00
60832;BME280;46665;51.558;-0.448;2023-07-29T03:40:51;100011.75;;;15.09;100.00
60832;BME280;46665;51.558;-0.448;2023-07-29T03:43:16;100022.84;;;15.13;100.00
60832;BME280;46665;51.558;-0.448;2023-07-29T03:45:42;100025.91;;;15.11;100.00
60832;BME280;46665;51.558;-0.448;2023-07-29T03:48:07;100025.28;;;15.14;100.00
60832;BME280;46665;51.558;-0.448;2023-07-29T03:50:34;100030.75;;;15.14;100.00
60832;BME280;46665;51.558;-0.448;2023-07-29T03:53:01;100033.16;;;15.16;100.00
60832;BME280;46665;51.558;-0.448;2023-07-29T03:55:26;100040.09;;;15.13;100.00
60832;BME280;46665;51.558;-0.448;2023-07-29T03:57:51;100036.56;;;15.13;100.00
60832;BME280;46665;51.558;-0.448;2023-07-29T04:00:17;100030.59;;;15.11;100.00
60832;BME280;46665;51.558;-0.448;2023-07-29T04:02:42;100037.22;;;15.10;100.00
60832;BME280;46665;51.558;-0.448;2023-07-29T04:05:08;100038.97;;;15.06;100.00
60832;BME280;46665;51.558;-0.448;2023-07-29T04:07:34;100039.97;;;15.10;100.00
60832;BME280;46665;51.558;-0.448;2023-07-29T04:10:00;100032.84;;;15.09;100.00
60832;BME280;46665;51.558;-0.448;2023-07-29T04:12:26;100028.69;;;15.03;100.00
60832;BME280;46665;51.558;-0.448;2023-07-29T04:14:52;100026.09;;;15.06;100.00
60832;BME280;46665;51.558;-0.448;2023-07-29T04:17:17;100028.19;;;15.09;100.00
60832;BME280;46665;51.558;-0.448;2023-07-29T04:19:43;100035.28;;;15.10;100.00
60832;BME280;46665;51.558;-0.448;2023-07-29T04:22:08;100034.63;;;15.13;100.00
60832;BME280;46665;51.558;-0.448;2023-07-29T04:24:34;100038.16;;;15.14;100.00
60832;BME280;46665;51.558;-0.448;2023-07-29T04:27:00;100026.06;;;15.15;100.00
60832;BME280;46665;51.558;-0.448;2023-07-29T04:29:25;100015.44;;;15.13;100.00
60832;BME280;46665;51.558;-0.448;2023-07-29T04:31:51;100019.81;;;15.14;100.00
60832;BME280;46665;51.558;-0.448;2023-07-29T04:34:19;100031.25;;;15.08;100.00
60832;BME280;46665;51.558;-0.448;2023-07-29T04:36:46;100033.03;;;15.12;100.00
60832;BME280;46665;51.558;-0.448;2023-07-29T04:39:11;100045.09;;;15.11;100.00
60832;BME280;46665;51.558;-0.448;2023-07-29T04:41:37;100047.03;;;15.11;100.00
60832;BME280;46665;51.558;-0.448;2023-07-29T04:44:02;100046.88;;;15.07;100.00
60832;BME280;46665;51.558;-0.448;2023-07-29T04:46:28;100041.25;;;15.04;100.00
60832;BME280;46665;51.558;-0.448;2023-07-29T04:48:53;100038.97;;;15.06;100.00
60832;BME280;46665;51.558;-0.448;2023-07-29T04:51:18;100040.13;;;15.05;100.00
60832;BME280;46665;51.558;-0.448;2023-07-29T04:53:44;100040.63;;;15.07;100.00
60832;BME280;46665;51.558;-0.448;2023-07-29T04:56:09;100033.50;;;15.06;100.00
60832;BME280;46665;51.558;-0.448;2023-07-29T04:58:35;100034.63;;;15.13;100.00
60832;BME280;46665;51.558;-0.448;2023-07-29T05:01:02;100033.81;;;15.13;100.00
60832;BME280;46665;51.558;-0.448;2023-07-29T05:03:28;100028.34;;;15.13;100.00
60832;BME280;46665;51.558;-0.448;2023-07-29T05:05:53;100029.13;;;15.13;100.00
60832;BME280;46665;51.558;-0.448;2023-07-29T05:08:20;100025.28;;;15.14;100.00
60832;BME280;46665;51.558;-0.448;2023-07-29T05:10:50;100036.25;;;15.14;100.00
60832;BME280;46665;51.558;-0.448;2023-07-29T05:13:15;100023.66;;;15.13;100.00
60832;BME280;46665;51.558;-0.448;2023-07-29T05:15:41;100025.28;;;15.14;100.00
60832;BME280;46665;51.558;-0.448;2023-07-29T05:18:06;100021.09;;;15.17;100.00
60832;BME280;46665;51.558;-0.448;2023-07-29T05:20:31;100020.25;;;15.16;100.00
60832;BME280;46665;51.558;-0.448;2023-07-29T05:22:57;100030.41;;;15.16;100.00
60832;BME280;46665;51.558;-0.448;2023-07-29T05:25:22;100040.59;;;15.15;100.00
60832;BME280;46665;51.558;-0.448;2023-07-29T05:27:48;100042.03;;;15.13;100.00
60832;BME280;46665;51.558;-0.448;2023-07-29T05:30:13;100041.56;;;15.11;100.00
60832;BME280;46665;51.558;-0.448;2023-07-29T05:32:38;100038.50;;;15.12;100.00
60832;BME280;46665;51.558;-0.448;2023-07-29T05:35:04;100036.88;;;15.11;100.00
60832;BME280;46665;51.558;-0.448;2023-07-29T05:37:29;100037.69;;;15.12;100.00
60832;BME280;46665;51.558;-0.448;2023-07-29T05:39:55;100041.88;;;15.18;100.00
60832;BME280;46665;51.558;-0.448;2023-07-29T05:42:20;100035.41;;;15.23;100.00
60832;BME280;46665;51.558;-0.448;2023-07-29T05:44:45;100048.13;;;15.27;100.00
60832;BME280;46665;51.558;-0.448;2023-07-29T05:47:11;100048.28;;;15.31;100.00
60832;BME280;46665;51.558;-0.448;2023-07-29T05:49:36;100040.66;;;15.36;100.00
60832;BME280;46665;51.558;-0.448;2023-07-29T05:52:02;100050.34;;;15.34;100.00
60832;BME280;46665;51.558;-0.448;2023-07-29T05:54:27;100041.47;;;15.46;100.00
60832;BME280;46665;51.558;-0.448;2023-07-29T05:56:52;100053.38;;;15.50;100.00
60832;BME280;46665;51.558;-0.448;2023-07-29T05:59:18;100050.78;;;15.53;100.00
60832;BME280;46665;51.558;-0.448;2023-07-29T06:01:43;100041.75;;;15.53;100.00
60832;BME280;46665;51.558;-0.448;2023-07-29T06:04:08;100040.28;;;15.55;100.00
60832;BME280;46665;51.558;-0.448;2023-07-29T06:06:34;100038.03;;;15.57;100.00
60832;BME280;46665;51.558;-0.448;2023-07-29T06:08:59;100049.00;;;15.57;100.00
60832;BME280;46665;51.558;-0.448;2023-07-29T06:11:24;100044.63;;;15.56;100.00
60832;BME280;46665;51.558;-0.448;2023-07-29T06:13:50;100034.28;;;15.62;100.00
60832;BME280;46665;51.558;-0.448;2023-07-29T06:16:15;100036.84;;;15.67;100.00
60832;BME280;46665;51.558;-0.448;2023-07-29T06:18:41;100036.50;;;15.69;100.00
60832;BME280;46665;51.558;-0.448;2023-07-29T06:21:06;100034.44;;;15.66;100.00
60832;BME280;46665;51.558;-0.448;2023-07-29T06:23:33;100044.47;;;15.70;100.00
60832;BME280;46665;51.558;-0.448;2023-07-29T06:25:59;100039.25;;;15.69;100.00
60832;BME280;46665;51.558;-0.448;2023-07-29T06:28:26;100035.72;;;15.68;100.00
60832;BME280;46665;51.558;-0.448;2023-07-29T06:30:51;100045.38;;;15.74;100.00
60832;BME280;46665;51.558;-0.448;2023-07-29T06:33:17;100045.19;;;15.79;100.00
60832;BME280;46665;51.558;-0.448;2023-07-29T06:35:42;100048.09;;;15.83;100.00
60832;BME280;46665;51.558;-0.448;2023-07-29T06:38:08;100050.03;;;15.82;100.00
60832;BME280;46665;51.558;-0.448;2023-07-29T06:40:33;100051.66;;;15.84;100.00
60832;BME280;46665;51.558;-0.448;2023-07-29T06:42:58;100057.13;;;15.84;100.00
60832;BME280;46665;51.558;-0.448;2023-07-29T06:45:24;100050.84;;;15.83;100.00
60832;BME280;46665;51.558;-0.448;2023-07-29T06:47:49;100048.09;;;15.83;100.00
60832;BME280;46665;51.558;-0.448;2023-07-29T06:50:18;100050.03;;;15.82;100.00
60832;BME280;46665;51.558;-0.448;2023-07-29T06:52:44;100053.25;;;15.85;100.00
60832;BME280;46665;51.558;-0.448;2023-07-29T06:55:10;100051.31;;;15.85;100.00
60832;BME280;46665;51.558;-0.448;2023-07-29T06:57:35;100057.41;;;15.91;100.00
60832;BME280;46665;51.558;-0.448;2023-07-29T07:00:01;100056.63;;;15.90;100.00
60832;BME280;46665;51.558;-0.448;2023-07-29T07:02:27;100052.41;;;15.93;100.00
60832;BME280;46665;51.558;-0.448;2023-07-29T07:04:52;100057.91;;;15.93;100.00
60832;BME280;46665;51.558;-0.448;2023-07-29T07:07:18;100068.22;;;15.87;100.00
60832;BME280;46665;51.558;-0.448;2023-07-29T07:09:43;100066.13;;;15.93;100.00
60832;BME280;46665;51.558;-0.448;2023-07-29T07:12:08;100066.56;;;15.95;100.00
60832;BME280;46665;51.558;-0.448;2023-07-29T07:14:34;100064.66;;;15.95;100.00
60832;BME280;46665;51.558;-0.448;2023-07-29T07:16:59;100058.69;;;15.93;100.00
60832;BME280;46665;51.558;-0.448;2023-07-29T07:19:25;100063.66;;;16.00;100.00
60832;BME280;46665;51.558;-0.448;2023-07-29T07:21:50;100066.47;;;16.12;100.00
60832;BME280;46665;51.558;-0.448;2023-07-29T07:24:15;100068.41;;;16.20;100.00
60832;BME280;46665;51.558;-0.448;2023-07-29T07:26:41;100059.81;;;16.22;100.00
60832;BME280;46665;51.558;-0.448;2023-07-29T07:29:06;100058.69;;;16.23;100.00
60832;BME280;46665;51.558;-0.448;2023-07-29T07:31:35;100064.09;;;16.32;100.00
60832;BME280;46665;51.558;-0.448;2023-07-29T07:34:00;100063.59;;;16.38;100.00
60832;BME280;46665;51.558;-0.448;2023-07-29T07:36:27;100063.84;;;16.45;100.00
60832;BME280;46665;51.558;-0.448;2023-07-29T07:38:53;100061.34;;;16.53;100.00
60832;BME280;46665;51.558;-0.448;2023-07-29T07:41:21;100060.34;;;16.57;100.00
60832;BME280;46665;51.558;-0.448;2023-07-29T07:43:46;100063.91;;;16.58;100.00
60832;BME280;46665;51.558;-0.448;2023-07-29T07:46:12;100062.56;;;16.64;100.00
60832;BME280;46665;51.558;-0.448;2023-07-29T07:48:38;100057.41;;;16.62;100.00
60832;BME280;46665;51.558;-0.448;2023-07-29T07:51:11;100049.16;;;16.62;100.00
60832;BME280;46665;51.558;-0.448;2023-07-29T07:53:37;100048.97;;;16.67;100.00
60832;BME280;46665;51.558;-0.448;2023-07-29T07:56:03;100049.44;;;16.69;100.00
60832;BME280;46665;51.558;-0.448;2023-07-29T07:58:28;100047.75;;;16.77;100.00
60832;BME280;46665;51.558;-0.448;2023-07-29T08:01:01;100053.19;;;16.86;100.00
60832;BME280;46665;51.558;-0.448;2023-07-29T08:03:26;100062.97;;;16.96;100.00
60832;BME280;46665;51.558;-0.448;2023-07-29T08:05:51;100058.63;;;16.95;100.00
60832;BME280;46665;51.558;-0.448;2023-07-29T08:08:17;100053.03;;;17.03;100.00
60832;BME280;46665;51.558;-0.448;2023-07-29T08:10:42;100055.56;;;17.08;100.00
60832;BME280;46665;51.558;-0.448;2023-07-29T08:13:08;100062.09;;;17.16;100.00
60832;BME280;46665;51.558;-0.448;2023-07-29T08:15:33;100051.34;;;17.23;100.00
60832;BME280;46665;51.558;-0.448;2023-07-29T08:17:59;100056.75;;;17.20;100.00
60832;BME280;46665;51.558;-0.448;2023-07-29T08:20:24;100059.75;;;17.27;100.00
60832;BME280;46665;51.558;-0.448;2023-07-29T08:22:49;100078.31;;;17.30;100.00
60832;BME280;46665;51.558;-0.448;2023-07-29T08:25:15;100066.63;;;17.33;100.00
60832;BME280;46665;51.558;-0.448;2023-07-29T08:27:40;100058.03;;;17.35;100.00
60832;BME280;46665;51.558;-0.448;2023-07-29T08:30:06;100057.59;;;17.45;100.00
60832;BME280;46665;51.558;-0.448;2023-07-29T08:32:32;100063.69;;;17.50;100.00
60832;BME280;46665;51.558;-0.448;2023-07-29T08:34:57;100061.84;;;17.54;100.00
60832;BME280;46665;51.558;-0.448;2023-07-29T08:37:23;100049.69;;;17.55;100.00
60832;BME280;46665;51.558;-0.448;2023-07-29T08:39:48;100063.44;;;17.55;100.00
60832;BME280;46665;51.558;-0.448;2023-07-29T08:42:18;100057.03;;;17.64;100.00
60832;BME280;46665;51.558;-0.448;2023-07-29T08:44:45;100067.81;;;17.69;100.00
60832;BME280;46665;51.558;-0.448;2023-07-29T08:47:13;100055.78;;;17.73;100.00
60832;BME280;46665;51.558;-0.448;2023-07-29T08:49:39;100053.72;;;17.70;100.00
60832;BME280;46665;51.558;-0.448;2023-07-29T08:52:07;100053.75;;;17.83;100.00
60832;BME280;46665;51.558;-0.448;2023-07-29T08:54:32;100051.13;;;17.98;100.00
60832;BME280;46665;51.558;-0.448;2023-07-29T08:56:59;100060.97;;;18.12;99.13
60832;BME280;46665;51.558;-0.448;2023-07-29T08:59:25;100057.75;;;18.10;99.52
60832;BME280;46665;51.558;-0.448;2023-07-29T09:01:51;100061.41;;;18.14;98.03
60832;BME280;46665;51.558;-0.448;2023-07-29T09:04:20;100054.75;;;18.15;96.87
60832;BME280;46665;51.558;-0.448;2023-07-29T09:06:47;100055.09;;;18.26;97.06
60832;BME280;46665;51.558;-0.448;2023-07-29T09:09:13;100060.22;;;18.39;98.29
60832;BME280;46665;51.558;-0.448;2023-07-29T09:11:38;100059.94;;;18.57;95.16
60832;BME280;46665;51.558;-0.448;2023-07-29T09:14:03;100062.13;;;18.63;90.94
60832;BME280;46665;51.558;-0.448;2023-07-29T09:16:29;100056.25;;;18.65;91.43
60832;BME280;46665;51.558;-0.448;2023-07-29T09:18:55;100068.16;;;18.81;92.96
60832;BME280;46665;51.558;-0.448;2023-07-29T09:21:24;100058.03;;;18.86;87.60
60832;BME280;46665;51.558;-0.448;2023-07-29T09:23:54;100073.34;;;18.99;86.91
60832;BME280;46665;51.558;-0.448;2023-07-29T09:26:24;100069.09;;;19.01;83.35
60832;BME280;46665;51.558;-0.448;2023-07-29T09:28:56;100064.59;;;19.09;85.71
60832;BME280;46665;51.558;-0.448;2023-07-29T09:31:23;100070.13;;;19.25;86.20
60832;BME280;46665;51.558;-0.448;2023-07-29T09:33:50;100078.22;;;19.18;80.74
60832;BME280;46665;51.558;-0.448;2023-07-29T09:36:21;100062.53;;;19.06;80.48
60832;BME280;46665;51.558;-0.448;2023-07-29T09:38:46;100055.41;;;19.05;82.06
60832;BME280;46665;51.558;-0.448;2023-07-29T09:41:13;100052.00;;;18.96;80.66
60832;BME280;46665;51.558;-0.448;2023-07-29T09:43:39;100060.13;;;19.04;80.83
60832;BME280;46665;51.558;-0.448;2023-07-29T09:46:05;100061.66;;;19.18;81.01
60832;BME280;46665;51.558;-0.448;2023-07-29T09:48:35;100063.97;;;19.16;81.38
60832;BME280;46665;51.558;-0.448;2023-07-29T09:51:09;100065.59;;;19.17;81.33
60832;BME280;46665;51.558;-0.448;2023-07-29T09:53:42;100055.91;;;19.39;80.55
60832;BME280;46665;51.558;-0.448;2023-07-29T09:56:08;100066.78;;;19.47;78.10
60832;BME280;46665;51.558;-0.448;2023-07-29T09:58:34;100064.44;;;19.49;79.57
60832;BME280;46665;51.558;-0.448;2023-07-29T10:01:01;100061.63;;;19.46;79.99
60832;BME280;46665;51.558;-0.448;2023-07-29T10:03:27;100058.31;;;19.56;79.45
60832;BME280;46665;51.558;-0.448;2023-07-29T10:05:53;100066.53;;;19.68;79.28
60832;BME280;46665;51.558;-0.448;2023-07-29T10:08:20;100058.63;;;19.83;78.32
60832;BME280;46665;51.558;-0.448;2023-07-29T10:10:46;100065.28;;;19.82;77.31
60832;BME280;46665;51.558;-0.448;2023-07-29T10:13:12;100070.91;;;19.69;76.31
60832;BME280;46665;51.558;-0.448;2023-07-29T10:15:38;100057.59;;;19.59;76.66
60832;BME280;46665;51.558;-0.448;2023-07-29T10:18:04;100061.19;;;19.60;75.62
60832;BME280;46665;51.558;-0.448;2023-07-29T10:20:34;100060.94;;;19.81;75.79
60832;BME280;46665;51.558;-0.448;2023-07-29T10:23:00;100067.06;;;19.90;76.44
60832;BME280;46665;51.558;-0.448;2023-07-29T10:25:38;100070.25;;;19.92;75.19
60832;BME280;46665;51.558;-0.448;2023-07-29T10:28:06;100074.47;;;19.86;73.45
60832;BME280;46665;51.558;-0.448;2023-07-29T10:30:32;100082.75;;;19.70;72.60
60832;BME280;46665;51.558;-0.448;2023-07-29T10:33:02;100083.75;;;19.49;71.69
60832;BME280;46665;51.558;-0.448;2023-07-29T10:35:27;100084.84;;;19.45;73.17
60832;BME280;46665;51.558;-0.448;2023-07-29T10:37:53;100084.72;;;19.25;74.25
60832;BME280;46665;51.558;-0.448;2023-07-29T10:40:20;100083.66;;;19.30;74.69
60832;BME280;46665;51.558;-0.448;2023-07-29T10:43:10;100090.09;;;19.50;74.75
60832;BME280;46665;51.558;-0.448;2023-07-29T10:45:37;100083.09;;;19.68;70.82
60832;BME280;46665;51.558;-0.448;2023-07-29T10:48:10;100088.44;;;19.77;71.59
60832;BME280;46665;51.558;-0.448;2023-07-29T10:50:35;100080.06;;;19.74;72.18
60832;BME280;46665;51.558;-0.448;2023-07-29T10:53:00;100081.59;;;19.71;72.89
60832;BME280;46665;51.558;-0.448;2023-07-29T10:55:32;100088.16;;;19.66;74.08
60832;BME280;46665;51.558;-0.448;2023-07-29T11:00:31;100097.69;;;19.85;71.07
60832;BME280;46665;51.558;-0.448;2023-07-29T11:03:05;100098.59;;;19.89;71.60
60832;BME280;46665;51.558;-0.448;2023-07-29T11:05:50;100095.31;;;19.83;70.85
60832;BME280;46665;51.558;-0.448;2023-07-29T11:08:36;100091.47;;;19.88;70.19
60832;BME280;46665;51.558;-0.448;2023-07-29T11:13:27;100077.34;;;20.25;73.07
60832;BME280;46665;51.558;-0.448;2023-07-29T11:15:54;100078.44;;;20.40;71.13
60832;BME280;46665;51.558;-0.448;2023-07-29T11:18:20;100087.78;;;20.51;71.92
60832;BME280;46665;51.558;-0.448;2023-07-29T11:20:46;100084.03;;;20.24;70.58
60832;BME280;46665;51.558;-0.448;2023-07-29T11:23:13;100081.03;;;20.13;71.99
60832;BME280;46665;51.558;-0.448;2023-07-29T11:25:38;100085.72;;;20.12;72.48
60832;BME280;46665;51.558;-0.448;2023-07-29T11:28:04;100085.81;;;20.16;72.32
60832;BME280;46665;51.558;-0.448;2023-07-29T11:30:29;100090.06;;;20.29;70.18
60832;BME280;46665;51.558;-0.448;2023-07-29T11:32:56;100092.47;;;20.31;67.44
60832;BME280;46665;51.558;-0.448;2023-07-29T11:35:22;100081.94;;;20.37;68.05
60832;BME280;46665;51.558;-0.448;2023-07-29T11:37:49;100078.22;;;20.48;63.91
60832;BME280;46665;51.558;-0.448;2023-07-29T11:40:19;100087.53;;;20.56;63.38
60832;BME280;46665;51.558;-0.448;2023-07-29T11:42:46;100084.03;;;20.43;61.63
60832;BME280;46665;51.558;-0.448;2023-07-29T11:45:13;100094.69;;;20.41;62.49
60832;BME280;46665;51.558;-0.448;2023-07-29T11:47:39;100087.25;;;20.26;63.13
60832;BME280;46665;51.558;-0.448;2023-07-29T11:50:07;100096.94;;;20.20;63.74
60832;BME280;46665;51.558;-0.448;2023-07-29T11:52:35;100095.19;;;20.11;62.92
60832;BME280;46665;51.558;-0.448;2023-07-29T11:55:02;100081.81;;;20.13;64.67
60832;BME280;46665;51.558;-0.448;2023-07-29T11:57:29;100088.31;;;20.21;63.93
60832;BME280;46665;51.558;-0.448;2023-07-29T11:59:55;100101.72;;;20.39;63.22
60832;BME280;46665;51.558;-0.448;2023-07-29T12:02:21;100092.88;;;20.49;63.05
60832;BME280;46665;51.558;-0.448;2023-07-29T12:04:49;100089.00;;;20.69;63.20
60832;BME280;46665;51.558;-0.448;2023-07-29T12:07:16;100110.59;;;20.83;60.89
60832;BME280;46665;51.558;-0.448;2023-07-29T12:09:42;100099.25;;;20.88;59.05
60832;BME280;46665;51.558;-0.448;2023-07-29T12:12:08;100092.19;;;21.10;61.28
60832;BME280;46665;51.558;-0.448;2023-07-29T12:14:34;100110.22;;;21.43;59.55
60832;BME280;46665;51.558;-0.448;2023-07-29T12:17:01;100104.53;;;21.36;58.19
60832;BME280;46665;51.558;-0.448;2023-07-29T12:19:37;100118.16;;;21.25;59.17
60832;BME280;46665;51.558;-0.448;2023-07-29T12:22:06;100100.44;;;21.07;58.92
60832;BME280;46665;51.558;-0.448;2023-07-29T12:24:33;100093.28;;;20.86;58.16
60832;BME280;46665;51.558;-0.448;2023-07-29T12:26:59;100095.03;;;20.75;59.33
60832;BME280;46665;51.558;-0.448;2023-07-29T12:29:25;100098.25;;;20.77;59.66
60832;BME280;46665;51.558;-0.448;2023-07-29T12:32:01;100103.84;;;20.81;60.27
60832;BME280;46665;51.558;-0.448;2023-07-29T12:34:28;100099.97;;;20.85;60.95
60832;BME280;46665;51.558;-0.448;2023-07-29T12:36:55;100097.66;;;21.07;60.48
60832;BME280;46665;51.558;-0.448;2023-07-29T12:41:51;100111.88;;;21.28;59.39
60832;BME280;46665;51.558;-0.448;2023-07-29T12:44:17;100111.88;;;21.48;57.72